Time;durP1;ratioP1;P1;durP2;ratioP2;P2;SDS_P1;SDS_P2;PMS_P1;PMS_P2;Temp;Humidity;BMP_temperature;BMP_pressure;BME280_temperature;BME280_humidity;BME280_pressure;Samples;Min_cycle;Max_cycle;Signal;HPM_P1;HPM_P2
2022/10/17 00:00:58;;;;;;;10.23;4.43;;;21.00;54.10;;;;;;21173561;28;20044;-59
2022/10/17 00:11:04;;;;;;;8.82;4.03;;;20.80;53.60;;;;;;21173686;28;20051;-58
2022/10/17 00:21:17;;;;;;;6.97;3.30;;;20.70;53.50;;;;;;21171927;28;20415;-58
2022/10/17 00:31:24;;;;;;;6.82;2.95;;;20.70;53.60;;;;;;21170903;28;20055;-58
2022/10/17 00:41:31;;;;;;;13.88;3.72;;;20.70;53.60;;;;;;21169561;28;20058;-57
2022/10/17 00:51:42;;;;;;;10.57;4.82;;;20.70;55.80;;;;;;21168001;28;20058;-57
2022/10/17 01:02:12;;;;;;;14.15;4.38;;;20.70;61.10;;;;;;21167861;28;20105;-57
2022/10/17 01:12:35;;;;;;;10.20;3.20;;;20.30;62.20;;;;;;21151892;28;20055;-59
2022/10/17 01:23:15;;;;;;;9.23;3.42;;;20.10;63.00;;;;;;21167236;28;20051;-58
2022/10/17 01:34:11;;;;;;;8.60;3.42;;;20.10;65.30;;;;;;21166606;28;20051;-57
2022/10/17 01:44:44;;;;;;;12.55;4.15;;;19.90;66.50;;;;;;21164431;28;20043;-57
2022/10/17 01:55:07;;;;;;;12.18;4.55;;;19.80;67.90;;;;;;20822967;28;20050;-58
2022/10/17 02:05:20;;;;;;;9.65;3.90;;;19.70;67.00;;;;;;20834655;28;20094;-58
2022/10/17 02:15:44;;;;;;;13.25;5.30;;;19.70;67.80;;;;;;20903542;28;20052;-58
2022/10/17 02:26:13;;;;;;;14.38;4.35;;;19.50;68.20;;;;;;20980871;28;20412;-57
2022/10/17 02:36:27;;;;;;;13.18;5.18;;;19.40;69.20;;;;;;21162455;28;20043;-57
2022/10/17 02:46:36;;;;;;;10.63;5.43;;;19.30;68.90;;;;;;21161266;28;20059;-57
2022/10/17 02:56:56;;;;;;;13.10;5.50;;;19.20;68.70;;;;;;21161874;28;20479;-58
2022/10/17 03:07:00;;;;;;;10.63;5.18;;;19.20;67.90;;;;;;21162232;28;20055;-58
2022/10/17 03:17:05;;;;;;;11.05;5.95;;;19.00;66.60;;;;;;21174876;28;20457;-58
2022/10/17 03:27:08;;;;;;;9.83;5.70;;;19.00;67.30;;;;;;21175926;28;20415;-58
2022/10/17 03:37:21;;;;;;;12.90;5.87;;;19.00;66.30;;;;;;21175058;28;20040;-58
2022/10/17 03:47:23;;;;;;;8.23;4.90;;;19.00;66.80;;;;;;21155671;28;20062;-58
2022/10/17 03:57:25;;;;;;;10.15;5.18;;;19.00;66.00;;;;;;21174577;28;20048;-57
2022/10/17 04:07:27;;;;;;;13.93;5.00;;;18.80;66.40;;;;;;21172704;28;20058;-58
2022/10/17 04:17:30;;;;;;;13.82;4.95;;;18.80;66.60;;;;;;21172001;28;20089;-58
2022/10/17 04:27:40;;;;;;;10.60;4.78;;;18.70;67.60;;;;;;21171268;28;20127;-59
2022/10/17 04:37:44;;;;;;;11.10;4.60;;;18.60;68.40;;;;;;21154113;28;20516;-59
2022/10/17 04:47:54;;;;;;;12.20;5.35;;;18.50;68.90;;;;;;21169678;28;20452;-58
2022/10/17 04:57:56;;;;;;;13.70;4.82;;;18.50;69.30;;;;;;21150954;28;20066;-58
2022/10/17 05:07:59;;;;;;;12.98;4.80;;;18.40;69.60;;;;;;21168308;28;20070;-57
2022/10/17 05:18:01;;;;;;;14.27;4.05;;;18.40;69.70;;;;;;21168270;28;20044;-58
2022/10/17 05:28:09;;;;;;;15.85;4.50;;;18.40;69.80;;;;;;21166641;28;20047;-57
2022/10/17 05:38:11;;;;;;;15.00;5.18;;;18.40;69.70;;;;;;21147974;28;20050;-57
2022/10/17 05:48:19;;;;;;;14.48;5.03;;;18.40;69.70;;;;;;21165003;28;20051;-57
2022/10/17 05:58:21;;;;;;;14.90;4.05;;;18.50;69.80;;;;;;21146245;28;20503;-58
2022/10/17 06:08:31;;;;;;;14.57;4.10;;;18.40;69.80;;;;;;21163397;28;20488;-59
2022/10/17 06:18:35;;;;;;;15.82;4.63;;;18.50;69.80;;;;;;21163744;28;20039;-58
2022/10/17 06:28:37;;;;;;;16.00;5.40;;;18.40;70.20;;;;;;21162668;28;20052;-57
2022/10/17 06:38:39;;;;;;;18.52;5.72;;;18.40;69.90;;;;;;21162719;28;20496;-58
2022/10/17 06:48:42;;;;;;;20.40;6.67;;;18.20;71.00;;;;;;21171050;28;20083;-58
2022/10/17 06:58:45;;;;;;;19.60;6.55;;;18.20;71.60;;;;;;21178292;28;20047;-58
2022/10/17 07:08:48;;;;;;;18.15;4.70;;;18.30;71.30;;;;;;21177431;28;20051;-59
2022/10/17 07:18:51;;;;;;;14.57;4.63;;;18.40;70.60;;;;;;21177750;28;20047;-58
2022/10/17 07:28:54;;;;;;;12.48;4.53;;;18.30;70.60;;;;;;21176753;28;20047;-58
2022/10/17 07:38:57;;;;;;;13.40;5.50;;;18.40;70.30;;;;;;21175012;28;20055;-58
2022/10/17 07:48:59;;;;;;;11.70;4.97;;;18.50;69.70;;;;;;21174205;28;20055;-58
2022/10/17 07:59:01;;;;;;;14.75;5.28;;;18.60;69.50;;;;;;21172668;28;20522;-58
2022/10/17 08:09:03;;;;;;;16.75;4.25;;;18.80;68.90;;;;;;21173216;28;20098;-57
2022/10/17 08:19:05;;;;;;;33.28;7.80;;;18.90;68.10;;;;;;21172628;28;20050;-58
2022/10/17 08:29:15;;;;;;;16.33;4.70;;;19.10;69.70;;;;;;21171158;28;20087;-58
2022/10/17 08:39:17;;;;;;;21.20;7.63;;;19.00;71.40;;;;;;21171105;28;20043;-58
2022/10/17 08:49:23;;;;;;;16.92;5.63;;;19.00;72.80;;;;;;21169844;28;20051;-59
2022/10/17 08:59:27;;;;;;;15.18;4.55;;;19.20;72.00;;;;;;21167811;28;20491;-57
2022/10/17 09:09:35;;;;;;;17.70;4.88;;;19.40;69.90;;;;;;21167023;28;20484;-59
2022/10/17 09:19:45;;;;;;;15.20;5.15;;;19.60;70.00;;;;;;21167282;28;20052;-59
2022/10/17 09:29:51;;;;;;;10.75;4.97;;;19.70;67.80;;;;;;21166792;28;20494;-59
2022/10/17 09:39:53;;;;;;;13.50;4.50;;;19.90;66.70;;;;;;21165851;28;20039;-60
2022/10/17 09:49:55;;;;;;;16.23;4.53;;;20.00;66.90;;;;;;21163434;28;20443;-56
2022/10/17 10:00:05;;;;;;;10.85;4.53;;;20.20;67.30;;;;;;21122286;28;20091;-58
2022/10/17 10:10:24;;;;;;;15.27;4.75;;;20.80;61.00;;;;;;21058910;28;20083;-56
2022/10/17 10:20:28;;;;;;;14.52;4.85;;;21.40;61.20;;;;;;21058768;28;20091;-62
2022/10/17 10:30:31;;;;;;;16.83;5.03;;;21.60;61.20;;;;;;21060021;28;20093;-61
2022/10/17 10:40:55;;;;;;;21.40;5.03;;;21.70;61.40;;;;;;21057787;28;20126;-62
2022/10/17 10:51:08;;;;;;;15.05;4.65;;;22.10;60.90;;;;;;21077200;28;20102;-60
2022/10/17 11:01:36;;;;;;;11.90;4.50;;;22.30;59.90;;;;;;21076426;28;20412;-61
2022/10/17 11:12:06;;;;;;;15.55;4.50;;;22.40;58.40;;;;;;21075230;28;20054;-59
2022/10/17 11:22:20;;;;;;;16.27;4.95;;;22.60;58.90;;;;;;21073794;28;20544;-62
2022/10/17 11:32:37;;;;;;;13.55;4.63;;;22.70;56.30;;;;;;21079632;28;20048;-61
2022/10/17 11:43:01;;;;;;;10.10;4.32;;;22.80;55.00;;;;;;21089463;28;20185;-57
2022/10/17 11:53:10;;;;;;;12.50;4.38;;;23.10;52.10;;;;;;21071043;28;20048;-61
2022/10/17 12:03:43;;;;;;;21.17;5.20;;;23.10;52.30;;;;;;21088660;28;20040;-59
2022/10/17 12:13:45;;;;;;;13.00;3.80;;;23.40;50.60;;;;;;21069556;28;20051;-60
2022/10/17 12:23:54;;;;;;;18.70;5.65;;;23.50;50.60;;;;;;21085187;28;20044;-61
2022/10/17 12:34:02;;;;;;;18.05;5.00;;;23.60;49.90;;;;;;21085293;28;20135;-60
2022/10/17 12:44:13;;;;;;;10.93;4.05;;;23.60;48.60;;;;;;21084545;28;20052;-59
2022/10/17 12:54:15;;;;;;;18.05;5.25;;;23.70;48.40;;;;;;21084683;28;20122;-60
2022/10/17 13:04:18;;;;;;;13.25;4.60;;;24.00;47.40;;;;;;21083688;28;20048;-60
2022/10/17 13:14:21;;;;;;;14.00;3.78;;;23.90;47.50;;;;;;21083912;28;20154;-60
2022/10/17 13:24:36;;;;;;;12.45;4.72;;;24.20;47.40;;;;;;21083271;28;20123;-59
2022/10/17 13:34:38;;;;;;;12.32;3.95;;;24.20;46.90;;;;;;21082936;28;20071;-61
2022/10/17 13:44:40;;;;;;;10.53;4.13;;;24.40;46.40;;;;;;21080471;28;20056;-61
2022/10/17 13:54:44;;;;;;;18.03;5.53;;;24.50;45.20;;;;;;21081921;28;20063;-60
2022/10/17 14:04:46;;;;;;;11.80;3.97;;;24.60;45.30;;;;;;21080496;28;20128;-60
2022/10/17 14:14:52;;;;;;;21.02;10.18;;;24.70;44.40;;;;;;21079949;28;20040;-60
2022/10/17 14:24:55;;;;;;;17.92;5.72;;;24.80;43.50;;;;;;21078655;28;20055;-59
2022/10/17 14:35:00;;;;;;;11.80;3.47;;;24.90;42.30;;;;;;21077716;28;20404;-60
2022/10/17 14:45:07;;;;;;;13.30;5.05;;;25.00;41.50;;;;;;21077351;28;20059;-59
2022/10/17 14:55:22;;;;;;;12.63;3.65;;;25.10;40.90;;;;;;21078206;28;20412;-60
2022/10/17 15:05:24;;;;;;;11.82;2.92;;;25.20;40.60;;;;;;21078898;28;20127;-59
2022/10/17 15:15:27;;;;;;;9.47;2.63;;;25.20;40.20;;;;;;21093618;28;20070;-59
2022/10/17 15:25:30;;;;;;;17.67;3.90;;;25.20;40.70;;;;;;21091835;28;20079;-60
2022/10/17 15:35:33;;;;;;;17.17;3.85;;;25.20;40.20;;;;;;21091074;28;20044;-61
2022/10/17 15:45:36;;;;;;;;;;;25.20;39.70;;;;;;21072726;28;20088;-59
2022/10/17 15:55:39;;;;;;;15.93;4.30;;;25.20;39.80;;;;;;21089986;28;20010;-59
2022/10/17 16:05:40;;;;;;;17.25;4.47;;;25.10;40.80;;;;;;21089628;28;20044;-59
2022/10/17 16:15:42;;;;;;;13.20;4.47;;;25.00;40.80;;;;;;21087382;28;20052;-60
2022/10/17 16:25:44;;;;;;;18.33;5.53;;;25.00;40.70;;;;;;21086078;28;20048;-60
2022/10/17 16:35:48;;;;;;;16.35;3.72;;;24.70;41.40;;;;;;21087204;28;20389;-60
2022/10/17 16:45:49;;;;;;;16.13;4.70;;;24.70;41.50;;;;;;21085638;28;20094;-60
2022/10/17 16:55:59;;;;;;;13.00;5.03;;;24.60;41.60;;;;;;21085517;28;20043;-61
2022/10/17 17:06:02;;;;;;;18.35;5.40;;;24.40;42.20;;;;;;21084048;28;20052;-59
2022/10/17 17:16:06;;;;;;;19.48;6.50;;;24.30;42.60;;;;;;21083173;28;20043;-61
2022/10/17 17:26:12;;;;;;;18.85;6.43;;;24.10;43.40;;;;;;21081963;28;20090;-61
2022/10/17 17:36:19;;;;;;;16.00;4.57;;;23.90;44.20;;;;;;21082403;28;20040;-60
2022/10/17 17:46:22;;;;;;;14.60;4.88;;;23.70;43.80;;;;;;21081723;28;20557;-60
2022/10/17 17:56:28;;;;;;;14.57;4.60;;;23.60;44.10;;;;;;21080312;28;20408;-60
2022/10/17 18:06:30;;;;;;;14.15;3.58;;;23.50;46.50;;;;;;21081057;28;20050;-59
2022/10/17 18:16:33;;;;;;;15.70;4.83;;;23.40;47.60;;;;;;21078766;28;20048;-60
2022/10/17 18:26:35;;;;;;;16.77;4.72;;;23.10;48.30;;;;;;21060279;28;20054;-62
2022/10/17 18:36:37;;;;;;;14.80;4.30;;;23.20;48.40;;;;;;21078329;28;20131;-60
2022/10/17 18:46:40;;;;;;;11.82;4.45;;;23.10;48.60;;;;;;21089254;28;20308;-59
2022/10/17 18:56:42;;;;;;;21.88;6.93;;;23.00;49.10;;;;;;21095379;28;20079;-59
2022/10/17 19:06:44;;;;;;;19.45;7.55;;;22.90;50.00;;;;;;21076136;28;20048;-59
2022/10/17 19:16:48;;;;;;;16.48;7.43;;;22.70;50.80;;;;;;21092631;28;20101;-60
2022/10/17 19:26:54;;;;;;;23.25;7.65;;;22.60;51.20;;;;;;21092670;28;20102;-59
2022/10/17 19:36:55;;;;;;;20.77;5.65;;;22.30;52.40;;;;;;21092740;28;20458;-59
2022/10/17 19:46:57;;;;;;;14.90;5.75;;;22.00;53.80;;;;;;21090354;28;20056;-61
2022/10/17 19:56:59;;;;;;;17.33;6.38;;;21.80;54.50;;;;;;21071917;28;20083;-58
2022/10/17 20:07:00;;;;;;;16.02;5.85;;;21.60;55.20;;;;;;21089705;28;20055;-59
2022/10/17 20:17:02;;;;;;;18.83;5.80;;;21.50;55.60;;;;;;21088150;28;20458;-60
2022/10/17 20:27:03;;;;;;;13.20;4.97;;;21.30;56.00;;;;;;21087837;28;20447;-59
2022/10/17 20:37:05;;;;;;;14.65;5.78;;;21.20;56.70;;;;;;21087044;28;20040;-59
2022/10/17 20:47:07;;;;;;;18.27;4.82;;;21.10;57.30;;;;;;21084853;28;20060;-60
2022/10/17 20:57:09;;;;;;;15.57;5.20;;;20.90;57.90;;;;;;21085130;28;20213;-61
2022/10/17 21:07:11;;;;;;;13.33;5.17;;;20.70;58.50;;;;;;21083474;28;20074;-60
2022/10/17 21:17:12;;;;;;;15.20;5.07;;;20.60;58.90;;;;;;21083644;28;20465;-59
2022/10/17 21:27:18;;;;;;;16.83;4.90;;;20.40;59.60;;;;;;21082963;28;20051;-61
2022/10/17 21:37:20;;;;;;;22.27;5.73;;;20.20;60.10;;;;;;21082313;28;20060;-59
2022/10/17 21:47:22;;;;;;;20.10;6.32;;;20.20;60.30;;;;;;21080185;28;20496;-61
2022/10/17 21:57:25;;;;;;;14.23;5.43;;;20.20;60.30;;;;;;21081139;28;20048;-58
2022/10/17 22:07:28;;;;;;;19.73;5.97;;;20.10;60.80;;;;;;21081617;28;20549;-60
2022/10/17 22:17:29;;;;;;;16.65;6.15;;;20.00;61.00;;;;;;21079613;28;20093;-60
2022/10/17 22:27:32;;;;;;;14.73;5.23;;;19.80;61.80;;;;;;21082776;28;20048;-60
2022/10/17 22:37:34;;;;;;;15.73;6.00;;;19.70;62.20;;;;;;21081512;28;20056;-60
2022/10/17 22:47:36;;;;;;;18.48;5.70;;;19.50;62.40;;;;;;21078554;28;20065;-58
2022/10/17 22:57:37;;;;;;;15.00;7.05;;;19.60;62.50;;;;;;21078046;28;20051;-58
2022/10/17 23:07:45;;;;;;;19.10;6.25;;;19.60;62.50;;;;;;21077971;28;20133;-60
2022/10/17 23:17:48;;;;;;;20.40;7.72;;;19.60;62.70;;;;;;21077842;28;20048;-61
2022/10/17 23:27:54;;;;;;;16.13;5.47;;;19.50;63.10;;;;;;21080645;28;20080;-58
2022/10/17 23:37:57;;;;;;;18.02;6.18;;;19.30;63.20;;;;;;21091938;28;20040;-59
2022/10/17 23:48:01;;;;;;;18.13;6.32;;;19.20;63.60;;;;;;21090971;28;20063;-59
2022/10/17 23:58:04;;;;;;;14.75;5.70;;;19.10;64.20;;;;;;21072283;28;20044;-59
